Time;durP1;ratioP1;P1;durP2;ratioP2;P2;SDS_P1;SDS_P2;PMS_P1;PMS_P2;Temp;Humidity;BMP_temperature;BMP_pressure;BME280_temperature;BME280_humidity;BME280_pressure;Samples;Min_cycle;Max_cycle;Signal;HPM_P1;HPM_P2
2024/01/09 00:02:12;;;;;;;24.40;19.73;;;7.70;99.90;;;;;;6184248;23;20091;-83
2024/01/09 00:04:38;;;;;;;27.77;20.83;;;7.70;99.90;;;;;;6184002;23;20001;-84
2024/01/09 00:07:04;;;;;;;23.95;20.85;;;7.70;99.90;;;;;;6159151;23;20606;-84
2024/01/09 00:09:33;;;;;;;23.20;19.38;;;7.70;99.90;;;;;;6185449;23;20437;-83
2024/01/09 00:11:59;;;;;;;29.48;21.65;;;7.70;99.90;;;;;;6158831;23;20063;-84
2024/01/09 00:14:24;;;;;;;29.15;20.92;;;7.60;99.90;;;;;;6159046;23;20605;-83
2024/01/09 00:16:50;;;;;;;24.45;20.67;;;7.60;99.90;;;;;;6159034;23;20005;-84
2024/01/09 00:19:16;;;;;;;29.35;21.92;;;7.60;99.90;;;;;;6158947;23;20029;-84
2024/01/09 00:21:52;;;;;;;27.27;21.67;;;7.60;99.90;;;;;;6185310;23;20349;-84
2024/01/09 00:24:18;;;;;;;27.52;23.20;;;7.60;99.90;;;;;;6158690;23;20441;-84
2024/01/09 00:26:44;;;;;;;29.10;22.55;;;7.60;99.90;;;;;;6158875;23;20063;-84
2024/01/09 00:29:10;;;;;;;22.50;20.08;;;7.60;99.90;;;;;;6184995;23;20004;-84
2024/01/09 00:31:36;;;;;;;24.95;19.80;;;7.60;99.90;;;;;;6185001;23;20063;-84
2024/01/09 00:34:02;;;;;;;24.35;20.33;;;7.60;99.90;;;;;;6158677;23;20001;-84
2024/01/09 00:36:27;;;;;;;23.20;19.45;;;7.60;99.90;;;;;;6184896;23;20001;-84
2024/01/09 00:38:53;;;;;;;23.25;18.92;;;7.60;99.90;;;;;;6158732;23;20455;-84
2024/01/09 00:41:19;;;;;;;24.08;18.58;;;7.50;99.90;;;;;;6158569;23;20005;-83
2024/01/09 00:43:45;;;;;;;28.58;18.77;;;7.50;99.90;;;;;;6158306;23;20013;-84
2024/01/09 00:46:11;;;;;;;22.83;17.33;;;7.60;99.90;;;;;;6184898;23;20076;-84
2024/01/09 00:48:39;;;;;;;22.55;17.52;;;7.50;99.90;;;;;;6184950;23;20108;-84
2024/01/09 00:51:08;;;;;;;22.35;17.52;;;7.50;99.90;;;;;;6158192;23;20044;-83
2024/01/09 00:53:34;;;;;;;17.20;15.30;;;7.50;99.90;;;;;;6158280;23;20309;-84
2024/01/09 00:55:59;;;;;;;22.50;17.40;;;7.50;99.90;;;;;;6158470;23;20076;-84
2024/01/09 00:58:25;;;;;;;21.73;18.17;;;7.50;99.90;;;;;;6184603;23;20009;-84
2024/01/09 01:00:51;;;;;;;23.80;18.52;;;7.50;99.90;;;;;;6132062;23;20021;-84
2024/01/09 01:03:17;;;;;;;21.48;17.92;;;7.50;99.90;;;;;;6128844;23;20009;-84
2024/01/09 01:05:42;;;;;;;25.65;18.63;;;7.50;99.90;;;;;;6128672;23;20031;-84
2024/01/09 01:08:08;;;;;;;21.27;18.30;;;7.40;99.90;;;;;;6154927;23;20005;-84
2024/01/09 01:10:34;;;;;;;22.83;18.50;;;7.50;99.90;;;;;;6154775;23;20001;-84
2024/01/09 01:12:59;;;;;;;22.98;16.83;;;7.40;99.90;;;;;;6128560;23;20012;-84
2024/01/09 01:15:25;;;;;;;20.38;16.50;;;7.40;99.90;;;;;;6154702;23;20009;-85
2024/01/09 01:17:51;;;;;;;23.23;17.10;;;7.50;99.90;;;;;;6154585;23;20081;-84
2024/01/09 01:20:17;;;;;;;21.27;15.43;;;7.40;99.90;;;;;;6128418;23;20052;-84
2024/01/09 01:22:43;;;;;;;18.88;15.50;;;7.40;99.90;;;;;;6154824;23;20006;-84
2024/01/09 01:25:09;;;;;;;19.83;16.00;;;7.40;99.90;;;;;;6154614;23;20035;-84
2024/01/09 01:27:34;;;;;;;22.73;16.58;;;7.30;99.90;;;;;;6128428;23;20052;-84
2024/01/09 01:30:00;;;;;;;21.17;17.27;;;7.40;99.90;;;;;;6128668;23;20595;-84
2024/01/09 01:32:26;;;;;;;20.27;16.85;;;7.40;99.90;;;;;;6154588;23;20052;-84
2024/01/09 01:34:51;;;;;;;21.85;17.25;;;7.40;99.90;;;;;;6154409;23;20029;-84
2024/01/09 01:37:17;;;;;;;20.88;16.52;;;7.40;99.90;;;;;;6154385;23;20304;-84
2024/01/09 01:39:43;;;;;;;20.02;16.80;;;7.40;99.90;;;;;;6128523;23;20080;-84
2024/01/09 01:42:08;;;;;;;22.33;16.58;;;7.40;99.90;;;;;;6128337;23;20378;-84
2024/01/09 01:44:35;;;;;;;20.48;15.93;;;7.40;99.90;;;;;;6128460;23;20032;-84
2024/01/09 01:47:00;;;;;;;25.33;16.58;;;7.40;99.90;;;;;;6128210;23;20014;-84
2024/01/09 01:49:26;;;;;;;20.23;15.68;;;7.40;99.90;;;;;;6127694;23;20411;-84
2024/01/09 01:51:52;;;;;;;18.10;15.50;;;7.40;99.90;;;;;;6127789;23;20488;-83
2024/01/09 01:54:19;;;;;;;18.73;16.30;;;7.50;99.90;;;;;;6128057;23;20057;-83
2024/01/09 01:56:50;;;;;;;20.58;17.13;;;7.40;99.90;;;;;;6128238;23;20013;-84
2024/01/09 01:59:19;;;;;;;17.08;14.70;;;7.50;99.90;;;;;;6127873;23;20346;-84
2024/01/09 02:01:46;;;;;;;20.38;15.48;;;7.50;99.90;;;;;;6128308;23;20005;-84
2024/01/09 02:04:12;;;;;;;18.73;16.23;;;7.50;99.90;;;;;;6127839;23;20013;-84
2024/01/09 02:06:38;;;;;;;20.15;16.27;;;7.50;99.90;;;;;;6128159;23;20006;-84
2024/01/09 02:09:04;;;;;;;23.52;16.52;;;7.40;99.90;;;;;;6154321;23;20012;-84
2024/01/09 02:11:31;;;;;;;17.67;15.77;;;7.40;99.90;;;;;;6128037;23;20006;-84
2024/01/09 02:13:57;;;;;;;21.65;16.10;;;7.50;99.90;;;;;;6127968;23;20013;-84
2024/01/09 02:16:23;;;;;;;22.10;17.52;;;7.40;99.90;;;;;;6127752;23;20037;-83
2024/01/09 02:18:49;;;;;;;18.98;15.70;;;7.40;99.90;;;;;;6154173;23;20005;-84
2024/01/09 02:21:15;;;;;;;17.60;15.68;;;7.40;99.90;;;;;;6127953;23;20069;-84
2024/01/09 02:23:40;;;;;;;16.88;14.95;;;7.40;99.90;;;;;;6154076;23;20106;-84
2024/01/09 02:26:08;;;;;;;19.67;16.10;;;7.40;99.90;;;;;;6128051;23;20012;-84
2024/01/09 02:28:45;;;;;;;20.40;16.50;;;7.40;99.90;;;;;;6127462;23;20081;-84
2024/01/09 02:31:11;;;;;;;17.67;15.80;;;7.40;99.90;;;;;;6127751;23;20092;-84
2024/01/09 02:33:39;;;;;;;19.65;15.82;;;7.40;99.90;;;;;;6153937;23;20032;-84
2024/01/09 02:36:05;;;;;;;23.25;17.38;;;7.40;99.90;;;;;;6127826;23;20005;-84
2024/01/09 02:38:34;;;;;;;18.38;16.40;;;7.30;99.90;;;;;;6153941;23;20009;-83
2024/01/09 02:41:00;;;;;;;18.23;16.45;;;7.30;99.90;;;;;;6127834;23;20001;-84
2024/01/09 02:43:25;;;;;;;20.63;17.35;;;7.40;99.90;;;;;;6153788;23;20012;-83
2024/01/09 02:45:51;;;;;;;21.83;15.45;;;7.30;99.90;;;;;;6153740;23;20319;-84
2024/01/09 02:48:17;;;;;;;22.95;16.00;;;7.40;99.90;;;;;;6127840;23;20005;-85
2024/01/09 02:50:42;;;;;;;21.08;17.08;;;7.40;99.90;;;;;;6153863;23;20409;-84
2024/01/09 02:53:08;;;;;;;25.15;16.80;;;7.40;99.90;;;;;;6127769;23;20430;-84
2024/01/09 02:55:34;;;;;;;19.05;16.33;;;7.40;99.90;;;;;;6153873;23;20316;-85
2024/01/09 02:57:59;;;;;;;18.38;15.70;;;7.40;99.90;;;;;;6153740;23;20002;-85
2024/01/09 03:00:25;;;;;;;24.50;17.02;;;7.40;99.90;;;;;;6127305;23;20018;-85
2024/01/09 03:02:51;;;;;;;20.05;15.70;;;7.40;99.90;;;;;;6127556;23;20028;-85
2024/01/09 03:05:16;;;;;;;22.20;16.48;;;7.40;99.90;;;;;;6127552;23;20001;-84
2024/01/09 03:07:42;;;;;;;19.83;16.55;;;7.40;99.90;;;;;;6127780;23;19997;-84
2024/01/09 03:10:09;;;;;;;23.73;16.67;;;7.40;99.90;;;;;;6127744;23;20461;-84
2024/01/09 03:12:34;;;;;;;19.20;16.85;;;7.40;99.90;;;;;;6153403;23;20380;-84
2024/01/09 03:15:00;;;;;;;24.08;17.08;;;7.40;99.90;;;;;;6127396;23;20022;-84
2024/01/09 03:17:26;;;;;;;21.27;17.23;;;7.40;99.90;;;;;;6127650;23;20006;-84
2024/01/09 03:19:51;;;;;;;18.17;16.27;;;7.40;99.90;;;;;;6127420;23;20341;-84
2024/01/09 03:22:17;;;;;;;21.80;16.20;;;7.40;99.90;;;;;;6153711;23;20072;-84
2024/01/09 03:24:43;;;;;;;20.58;16.92;;;7.30;99.90;;;;;;6127471;23;20013;-84
2024/01/09 03:27:09;;;;;;;17.67;15.27;;;7.30;99.90;;;;;;6127437;23;20018;-84
2024/01/09 03:29:34;;;;;;;18.45;16.08;;;7.30;99.90;;;;;;6153419;23;20170;-84
2024/01/09 03:32:00;;;;;;;19.60;16.88;;;7.30;99.90;;;;;;6127420;23;20009;-84
2024/01/09 03:34:29;;;;;;;20.90;16.73;;;7.30;99.90;;;;;;6127238;23;20001;-84
2024/01/09 03:36:54;;;;;;;19.50;16.58;;;7.30;99.90;;;;;;6153569;23;19998;-84
2024/01/09 03:39:20;;;;;;;17.83;13.80;;;7.30;99.90;;;;;;6127887;23;20033;-84
2024/01/09 03:41:46;;;;;;;14.50;11.98;;;7.30;99.90;;;;;;6129272;23;20473;-84
2024/01/09 03:44:14;;;;;;;16.58;12.40;;;7.30;99.90;;;;;;6129015;23;20033;-84
2024/01/09 03:46:40;;;;;;;17.35;14.00;;;7.30;99.90;;;;;;6129209;23;20266;-84
2024/01/09 03:49:06;;;;;;;13.63;10.75;;;7.20;99.90;;;;;;6129022;23;20005;-84
2024/01/09 03:51:32;;;;;;;13.38;10.50;;;7.20;99.90;;;;;;6129038;23;20060;-84
2024/01/09 03:53:57;;;;;;;15.25;10.15;;;7.20;99.90;;;;;;6155337;23;20001;-84
2024/01/09 03:56:24;;;;;;;14.90;9.77;;;7.10;94.10;;;;;;6129225;23;20009;-83
2024/01/09 03:58:51;;;;;;;12.63;8.85;;;7.20;96.70;;;;;;6156462;23;20024;-84
2024/01/09 04:01:17;;;;;;;13.18;9.52;;;7.10;71.10;;;;;;6158759;23;20449;-84
2024/01/09 04:03:42;;;;;;;13.45;8.70;;;7.10;86.80;;;;;;6158614;23;20013;-84
2024/01/09 04:06:08;;;;;;;10.10;8.55;;;7.10;81.40;;;;;;6158512;23;20330;-84
2024/01/09 04:08:34;;;;;;;10.77;8.98;;;7.10;90.70;;;;;;6158738;23;20028;-84
2024/01/09 04:11:03;;;;;;;9.52;8.63;;;7.10;94.90;;;;;;6158434;23;20396;-84
2024/01/09 04:13:29;;;;;;;9.52;8.50;;;7.00;94.10;;;;;;6158254;23;20004;-84
2024/01/09 04:15:55;;;;;;;13.90;8.65;;;6.90;95.30;;;;;;6184964;23;20008;-83
2024/01/09 04:18:20;;;;;;;12.98;8.10;;;6.80;69.60;;;;;;6158441;23;20012;-83
2024/01/09 04:20:46;;;;;;;10.32;7.03;;;6.80;88.50;;;;;;6158541;23;20012;-84
2024/01/09 04:23:12;;;;;;;11.35;7.25;;;6.80;88.30;;;;;;6158589;23;20009;-83
2024/01/09 04:25:37;;;;;;;9.32;7.22;;;6.80;77.20;;;;;;6184801;23;20520;-84
2024/01/09 04:28:06;;;;;;;11.88;7.38;;;6.80;80.80;;;;;;6158324;23;20044;-83
2024/01/09 04:30:32;;;;;;;8.57;7.10;;;6.80;66.80;;;;;;6158448;23;20380;-84
2024/01/09 04:32:58;;;;;;;9.68;6.70;;;6.70;76.10;;;;;;6184881;23;20024;-84
2024/01/09 04:35:23;;;;;;;8.43;7.10;;;6.60;85.60;;;;;;6158418;23;20033;-83
2024/01/09 04:37:49;;;;;;;10.23;7.90;;;6.50;95.30;;;;;;6184653;23;20079;-84
2024/01/09 04:40:15;;;;;;;9.77;7.25;;;6.60;99.30;;;;;;6158360;23;20429;-84
2024/01/09 04:42:40;;;;;;;10.30;7.32;;;6.50;95.80;;;;;;6158222;23;20441;-84
2024/01/09 04:45:06;;;;;;;9.20;7.15;;;6.50;98.20;;;;;;6158190;23;20005;-84
2024/01/09 04:47:32;;;;;;;8.68;6.35;;;6.40;91.80;;;;;;6158356;23;20036;-84
2024/01/09 04:49:58;;;;;;;8.63;7.22;;;6.40;94.80;;;;;;6158066;23;20437;-84
2024/01/09 04:52:23;;;;;;;13.15;7.35;;;6.40;96.30;;;;;;6157617;23;20016;-84
2024/01/09 04:54:49;;;;;;;10.55;6.97;;;6.40;93.40;;;;;;6184297;23;19997;-83
2024/01/09 04:57:18;;;;;;;7.85;7.05;;;6.30;96.40;;;;;;6184704;23;20007;-84
2024/01/09 04:59:44;;;;;;;6.93;6.32;;;6.30;97.70;;;;;;6157819;23;20021;-84
2024/01/09 05:02:10;;;;;;;7.00;6.30;;;6.30;94.30;;;;;;6158199;23;20463;-83
2024/01/09 05:04:35;;;;;;;7.95;7.05;;;6.30;94.00;;;;;;6158139;23;20001;-84
2024/01/09 05:07:01;;;;;;;8.13;7.03;;;6.30;94.90;;;;;;6158136;23;20456;-84
2024/01/09 05:09:27;;;;;;;10.60;7.22;;;6.20;99.90;;;;;;6157974;23;20088;-84
2024/01/09 05:11:53;;;;;;;10.98;7.78;;;6.20;99.90;;;;;;6157974;23;20013;-84
2024/01/09 05:14:19;;;;;;;8.90;7.40;;;6.00;99.90;;;;;;6184415;23;20005;-85
2024/01/09 05:16:45;;;;;;;9.98;7.47;;;5.90;99.90;;;;;;6158127;23;20027;-84
2024/01/09 05:19:10;;;;;;;8.52;7.57;;;5.80;99.90;;;;;;6158052;23;20421;-84
2024/01/09 05:21:36;;;;;;;9.23;7.50;;;5.90;99.90;;;;;;6184432;23;20012;-84
2024/01/09 05:24:02;;;;;;;8.75;7.70;;;5.90;99.90;;;;;;6157677;23;20096;-84
2024/01/09 05:26:28;;;;;;;8.57;6.93;;;6.00;99.90;;;;;;6157850;23;20005;-84
2024/01/09 05:28:53;;;;;;;9.25;7.30;;;6.00;99.90;;;;;;6157827;23;20012;-84
2024/01/09 05:31:20;;;;;;;8.38;7.53;;;6.00;99.90;;;;;;6184162;23;20448;-84
2024/01/09 05:33:47;;;;;;;9.85;6.90;;;6.10;99.90;;;;;;6184187;23;20328;-84
2024/01/09 05:36:18;;;;;;;11.35;7.32;;;6.00;99.90;;;;;;6157866;23;20001;-84
2024/01/09 05:38:43;;;;;;;11.35;7.13;;;6.00;99.90;;;;;;6157921;23;20001;-84
2024/01/09 05:41:17;;;;;;;10.82;8.38;;;6.00;99.90;;;;;;6157644;23;20032;-84
2024/01/09 05:43:43;;;;;;;12.13;8.60;;;6.00;99.90;;;;;;6157530;23;20031;-84
2024/01/09 05:46:08;;;;;;;12.48;8.45;;;6.00;99.90;;;;;;6184254;23;20001;-84
2024/01/09 05:48:34;;;;;;;9.52;8.02;;;6.10;99.90;;;;;;6183885;23;20445;-84
2024/01/09 05:51:00;;;;;;;11.73;8.68;;;6.00;99.90;;;;;;6156937;23;20088;-84
2024/01/09 05:53:25;;;;;;;9.18;8.23;;;6.10;99.90;;;;;;6157472;23;20001;-84
2024/01/09 05:55:51;;;;;;;10.00;9.00;;;6.10;99.90;;;;;;6184019;23;20001;-84
2024/01/09 05:58:17;;;;;;;10.27;8.70;;;6.10;99.90;;;;;;6157472;23;20001;-84
2024/01/09 06:00:42;;;;;;;10.95;9.48;;;6.10;99.90;;;;;;6157382;23;20025;-84
2024/01/09 06:03:08;;;;;;;15.77;9.05;;;6.10;99.90;;;;;;6157533;23;20084;-84
2024/01/09 06:05:34;;;;;;;12.98;9.10;;;6.10;99.90;;;;;;6183943;23;20001;-84
2024/01/09 06:08:03;;;;;;;14.48;10.52;;;6.20;99.90;;;;;;6157291;23;20037;-84
2024/01/09 06:10:32;;;;;;;12.05;10.52;;;6.20;99.90;;;;;;6157149;23;20020;-84
2024/01/09 06:12:58;;;;;;;13.10;10.50;;;6.10;99.90;;;;;;6157290;23;20005;-84
2024/01/09 06:15:24;;;;;;;17.75;13.05;;;6.10;99.90;;;;;;6157370;23;20500;-84
2024/01/09 06:17:49;;;;;;;20.30;14.75;;;6.20;99.90;;;;;;6157455;23;20027;-84
2024/01/09 06:20:15;;;;;;;17.05;13.68;;;6.10;99.90;;;;;;6183513;23;20072;-84
2024/01/09 06:22:41;;;;;;;18.42;13.10;;;6.10;99.90;;;;;;6157619;23;20275;-84
2024/01/09 06:25:06;;;;;;;18.48;13.77;;;6.10;99.90;;;;;;6157559;23;20452;-84
2024/01/09 06:27:32;;;;;;;19.50;14.32;;;6.10;99.90;;;;;;6157534;23;20253;-84
2024/01/09 06:29:58;;;;;;;16.83;13.90;;;6.10;99.90;;;;;;6157511;23;20032;-84
2024/01/09 06:32:23;;;;;;;17.98;13.20;;;6.20;99.90;;;;;;6157369;23;20225;-85
2024/01/09 06:34:49;;;;;;;14.43;12.20;;;6.20;99.90;;;;;;6157301;23;20067;-85
2024/01/09 06:37:15;;;;;;;16.48;12.15;;;6.20;99.90;;;;;;6157477;23;20197;-84
2024/01/09 06:39:41;;;;;;;16.60;13.10;;;6.20;99.90;;;;;;6156079;23;20012;-85
2024/01/09 06:42:07;;;;;;;17.88;11.90;;;6.20;99.90;;;;;;6155070;23;20029;-86
2024/01/09 06:44:33;;;;;;;17.83;12.88;;;6.20;99.90;;;;;;6155607;23;20009;-84
2024/01/09 06:46:58;;;;;;;14.75;12.00;;;6.20;99.90;;;;;;6181968;23;20024;-85
2024/01/09 06:49:24;;;;;;;20.67;12.75;;;6.20;99.90;;;;;;6154770;23;20020;-84
2024/01/09 06:51:51;;;;;;;15.52;12.63;;;6.30;99.90;;;;;;6181142;23;20437;-84
2024/01/09 06:54:17;;;;;;;20.38;12.48;;;6.30;99.90;;;;;;6181365;23;20025;-84
2024/01/09 06:56:45;;;;;;;15.55;11.75;;;6.30;99.90;;;;;;6156034;23;20008;-85
2024/01/09 06:59:11;;;;;;;16.00;13.23;;;6.30;99.90;;;;;;6155882;23;20020;-84
2024/01/09 07:01:38;;;;;;;15.68;12.70;;;6.30;99.90;;;;;;6156162;23;20429;-84
2024/01/09 07:04:07;;;;;;;21.83;13.55;;;6.30;99.90;;;;;;6182825;23;20062;-84
2024/01/09 07:06:32;;;;;;;17.13;13.82;;;6.30;99.90;;;;;;6156877;23;20013;-83
2024/01/09 07:08:58;;;;;;;21.45;14.48;;;6.30;99.90;;;;;;6156838;23;20037;-84
2024/01/09 07:11:24;;;;;;;24.40;14.10;;;6.30;99.90;;;;;;6157082;23;20358;-84
2024/01/09 07:13:49;;;;;;;18.85;13.05;;;6.30;99.90;;;;;;6156697;23;20422;-84
2024/01/09 07:16:15;;;;;;;15.20;12.57;;;6.30;99.90;;;;;;6156964;23;20005;-84
2024/01/09 07:18:41;;;;;;;14.40;12.30;;;6.30;99.90;;;;;;6183214;23;20000;-85
2024/01/09 07:21:06;;;;;;;15.38;12.30;;;6.30;99.90;;;;;;6156941;23;20013;-85
2024/01/09 07:23:32;;;;;;;13.63;12.25;;;6.30;99.90;;;;;;6157054;23;20032;-85
2024/01/09 07:25:59;;;;;;;16.48;12.63;;;6.20;99.90;;;;;;6183440;23;20066;-85
2024/01/09 07:28:25;;;;;;;14.80;12.88;;;6.20;99.90;;;;;;6156685;23;20013;-85
2024/01/09 07:30:52;;;;;;;18.42;13.52;;;6.20;99.90;;;;;;6156973;23;20063;-84
2024/01/09 07:33:18;;;;;;;15.52;12.88;;;6.20;99.90;;;;;;6183086;23;20071;-84
2024/01/09 07:35:44;;;;;;;18.00;14.43;;;6.20;99.90;;;;;;6157030;23;20005;-85
2024/01/09 07:38:10;;;;;;;15.55;12.23;;;6.30;99.90;;;;;;6157023;23;20001;-85
2024/01/09 07:40:36;;;;;;;14.18;12.02;;;6.30;99.90;;;;;;6156903;23;20063;-85
2024/01/09 07:43:03;;;;;;;17.88;12.98;;;6.30;99.90;;;;;;6156367;23;20337;-84
2024/01/09 07:45:29;;;;;;;16.33;13.18;;;6.30;99.90;;;;;;6182861;23;20007;-84
2024/01/09 07:47:59;;;;;;;16.27;13.93;;;6.30;99.90;;;;;;6156848;23;20084;-84
2024/01/09 07:50:25;;;;;;;17.75;13.80;;;6.30;99.90;;;;;;6183217;23;19993;-84
2024/01/09 07:52:51;;;;;;;15.48;13.43;;;6.40;99.90;;;;;;6156915;23;20009;-85
2024/01/09 07:55:17;;;;;;;17.05;13.45;;;6.40;99.90;;;;;;6156846;23;20456;-84
2024/01/09 07:57:42;;;;;;;21.13;13.48;;;6.50;99.90;;;;;;6156805;23;20008;-84
2024/01/09 08:00:09;;;;;;;19.33;13.30;;;6.50;99.90;;;;;;6156481;23;20017;-85
2024/01/09 08:02:35;;;;;;;16.90;12.95;;;6.50;99.90;;;;;;6156835;23;20217;-84
2024/01/09 08:05:00;;;;;;;17.05;14.00;;;6.50;99.90;;;;;;6156922;23;20015;-85
2024/01/09 08:07:26;;;;;;;17.30;13.52;;;6.50;99.90;;;;;;6157012;23;20437;-84
2024/01/09 08:09:52;;;;;;;15.43;12.15;;;6.60;99.90;;;;;;6156897;23;20009;-84
2024/01/09 08:12:17;;;;;;;16.88;12.70;;;6.50;99.90;;;;;;6156722;23;20005;-84
2024/01/09 08:14:43;;;;;;;16.02;12.65;;;6.50;99.90;;;;;;6182822;23;20012;-84
2024/01/09 08:17:09;;;;;;;14.30;12.13;;;6.60;99.90;;;;;;6156921;23;20401;-84
2024/01/09 08:19:35;;;;;;;15.93;13.23;;;6.50;96.40;;;;;;6156855;23;20010;-85
2024/01/09 08:22:00;;;;;;;19.15;13.25;;;6.50;94.10;;;;;;6183224;23;20429;-84
2024/01/09 08:24:29;;;;;;;15.18;12.90;;;6.50;93.60;;;;;;6156537;23;20009;-84
2024/01/09 08:26:58;;;;;;;16.58;12.48;;;6.50;81.40;;;;;;6157485;23;20009;-85
2024/01/09 08:29:27;;;;;;;13.30;12.00;;;6.50;58.00;;;;;;6158249;23;20337;-84
2024/01/09 08:31:53;;;;;;;18.13;13.68;;;6.50;57.60;;;;;;6158436;23;20009;-84
2024/01/09 08:34:19;;;;;;;17.00;12.88;;;6.50;60.50;;;;;;6158508;23;20005;-85
2024/01/09 08:36:45;;;;;;;22.77;13.68;;;6.50;50.50;;;;;;6184907;23;20329;-85
2024/01/09 08:39:14;;;;;;;17.35;13.30;;;6.50;28.90;;;;;;6158378;23;20032;-83
2024/01/09 08:41:41;;;;;;;23.13;14.10;;;6.50;40.80;;;;;;6158518;23;20016;-84
2024/01/09 08:44:07;;;;;;;29.05;14.48;;;6.40;13.60;;;;;;6157945;23;20059;-85
2024/01/09 08:46:34;;;;;;;30.88;16.98;;;6.30;13.10;;;;;;6184694;23;20005;-84
2024/01/09 08:49:00;;;;;;;33.38;16.48;;;6.20;33.00;;;;;;6184410;23;20028;-84
2024/01/09 08:51:27;;;;;;;26.05;16.15;;;6.30;38.70;;;;;;6158165;23;20012;-84
2024/01/09 08:53:56;;;;;;;26.45;16.38;;;6.30;38.70;;;;;;6158419;23;20011;-84
2024/01/09 08:56:22;;;;;;;23.30;15.68;;;6.30;36.20;;;;;;6158260;23;20012;-84
2024/01/09 08:58:47;;;;;;;20.45;14.98;;;6.40;18.20;;;;;;6157832;23;20008;-84
2024/01/09 09:01:17;;;;;;;23.75;15.50;;;6.40;1.00;;;;;;6158250;23;20017;-84
2024/01/09 09:03:46;;;;;;;21.00;16.08;;;6.40;1.00;;;;;;6158128;23;20009;-84
2024/01/09 09:06:12;;;;;;;19.65;15.95;;;6.30;12.80;;;;;;6184384;23;20001;-84
2024/01/09 09:08:39;;;;;;;19.08;15.90;;;6.40;10.80;;;;;;6158198;23;20012;-84
2024/01/09 09:11:07;;;;;;;19.00;15.30;;;6.50;16.70;;;;;;6184418;23;20005;-84
2024/01/09 09:13:32;;;;;;;19.08;14.85;;;6.50;18.60;;;;;;6157622;23;20012;-85
2024/01/09 09:15:58;;;;;;;19.95;15.57;;;6.50;4.60;;;;;;6158181;23;20087;-84
2024/01/09 09:18:24;;;;;;;21.92;14.02;;;6.60;12.20;;;;;;6158070;23;20005;-84
2024/01/09 09:20:50;;;;;;;21.08;15.10;;;6.60;1.00;;;;;;6158107;23;20095;-84
2024/01/09 09:23:15;;;;;;;20.02;14.50;;;6.50;1.00;;;;;;6184181;23;20024;-84
2024/01/09 09:25:41;;;;;;;19.83;14.50;;;6.40;1.00;;;;;;6158060;23;20008;-84
2024/01/09 09:28:07;;;;;;;22.52;14.88;;;6.30;1.00;;;;;;6184243;23;20001;-84
2024/01/09 09:30:33;;;;;;;18.67;14.25;;;6.40;1.00;;;;;;6157916;23;20012;-84
2024/01/09 09:32:58;;;;;;;18.05;14.68;;;6.40;1.00;;;;;;6157870;23;20008;-84
2024/01/09 09:35:24;;;;;;;18.13;14.15;;;6.50;1.00;;;;;;6157871;23;20388;-84
2024/01/09 09:37:50;;;;;;;18.27;14.73;;;6.50;1.00;;;;;;6157509;23;20468;-84
2024/01/09 09:40:16;;;;;;;19.45;15.77;;;6.60;1.00;;;;;;6157691;23;20009;-83
2024/01/09 09:42:43;;;;;;;23.58;14.43;;;6.60;1.00;;;;;;6157910;23;20060;-83
2024/01/09 09:45:13;;;;;;;16.42;14.73;;;6.60;1.00;;;;;;6157444;23;20005;-84
2024/01/09 09:47:40;;;;;;;16.45;14.52;;;6.70;1.00;;;;;;6157723;23;20434;-84
2024/01/09 09:50:09;;;;;;;20.10;15.43;;;6.70;1.00;;;;;;6157495;23;20012;-84
2024/01/09 09:52:41;;;;;;;17.77;14.82;;;6.80;1.00;;;;;;6157152;23;20314;-83
2024/01/09 09:55:08;;;;;;;19.25;16.13;;;6.90;1.00;;;;;;6157695;23;20005;-84
2024/01/09 09:57:34;;;;;;;19.17;14.93;;;6.90;1.00;;;;;;6157729;23;20001;-82
2024/01/09 10:00:00;;;;;;;18.48;14.73;;;6.90;1.00;;;;;;6157378;23;20150;-83
2024/01/09 10:02:30;;;;;;;18.88;15.68;;;6.90;1.00;;;;;;6157575;23;20009;-83
2024/01/09 10:05:12;;;;;;;17.75;13.85;;;7.00;1.00;;;;;;6157512;23;20024;-84
2024/01/09 10:07:39;;;;;;;16.25;13.75;;;7.00;1.00;;;;;;6183921;23;20483;-84
2024/01/09 10:10:08;;;;;;;18.40;14.88;;;7.00;1.00;;;;;;6157560;23;20005;-84
2024/01/09 10:12:34;;;;;;;17.25;13.98;;;7.00;1.00;;;;;;6157528;23;20008;-84
2024/01/09 10:15:12;;;;;;;16.15;14.00;;;7.00;1.00;;;;;;6157205;23;20008;-83
2024/01/09 10:17:41;;;;;;;17.98;14.30;;;7.00;1.00;;;;;;6157514;23;20010;-84
2024/01/09 10:20:15;;;;;;;17.67;13.73;;;7.00;1.00;;;;;;6183830;23;20076;-84
2024/01/09 10:22:41;;;;;;;16.65;14.00;;;6.90;99.90;;;;;;6157539;23;20009;-84
2024/01/09 10:25:11;;;;;;;17.08;13.02;;;6.90;1.00;;;;;;6183849;23;20268;-84
2024/01/09 10:27:38;;;;;;;16.63;13.63;;;7.00;1.00;;;;;;6157496;23;20055;-84
2024/01/09 10:30:05;;;;;;;18.67;13.43;;;7.00;1.00;;;;;;6183416;23;20009;-84
2024/01/09 10:32:36;;;;;;;16.90;14.02;;;7.00;1.00;;;;;;6157051;23;20020;-83
2024/01/09 10:35:03;;;;;;;17.70;13.90;;;7.00;1.00;;;;;;6157222;23;20008;-83
2024/01/09 10:37:33;;;;;;;15.10;13.15;;;7.10;1.00;;;;;;6157232;23;20005;-83
2024/01/09 10:39:59;;;;;;;17.77;14.43;;;7.10;1.00;;;;;;6157155;23;20079;-83
2024/01/09 10:42:26;;;;;;;19.95;14.45;;;7.10;1.00;;;;;;6157237;23;20370;-84
2024/01/09 10:44:52;;;;;;;14.90;13.30;;;7.10;1.00;;;;;;6183301;23;20005;-83
2024/01/09 10:47:20;;;;;;;17.48;13.93;;;7.20;1.00;;;;;;6157422;23;20385;-84
2024/01/09 10:49:46;;;;;;;19.38;14.30;;;7.30;1.00;;;;;;6156757;23;20012;-84
2024/01/09 10:52:16;;;;;;;19.95;15.02;;;7.30;1.00;;;;;;6183529;23;20005;-83
2024/01/09 10:54:44;;;;;;;16.52;14.48;;;7.50;1.00;;;;;;6183516;23;20055;-83
2024/01/09 10:57:12;;;;;;;15.70;14.10;;;7.50;1.00;;;;;;6157260;23;20056;-83
2024/01/09 10:59:45;;;;;;;16.40;14.65;;;7.60;1.00;;;;;;6156755;23;20105;-84
2024/01/09 11:02:21;;;;;;;17.08;13.25;;;7.60;1.00;;;;;;6157338;23;20005;-84
2024/01/09 11:04:48;;;;;;;24.83;14.88;;;7.60;1.00;;;;;;6156989;23;20096;-83
2024/01/09 11:07:15;;;;;;;20.83;14.55;;;7.60;99.90;;;;;;6157120;23;20064;-83
2024/01/09 11:09:48;;;;;;;17.15;13.55;;;7.70;1.00;;;;;;6157037;23;20009;-84
2024/01/09 11:12:38;;;;;;;18.15;12.90;;;7.70;1.00;;;;;;6183427;23;20013;-83
2024/01/09 11:15:13;;;;;;;15.90;13.63;;;7.70;99.90;;;;;;6156852;23;20437;-84
2024/01/09 11:17:41;;;;;;;16.02;13.93;;;7.70;99.90;;;;;;6183352;23;19997;-83
2024/01/09 11:20:09;;;;;;;19.15;14.40;;;7.70;99.90;;;;;;6156959;23;20040;-83
2024/01/09 11:22:36;;;;;;;20.60;14.45;;;7.70;99.90;;;;;;6157021;23;20449;-83
2024/01/09 11:25:05;;;;;;;23.45;14.70;;;7.70;99.90;;;;;;6157014;23;20020;-84
2024/01/09 11:27:41;;;;;;;20.05;14.18;;;7.80;99.90;;;;;;6183590;23;20012;-83
2024/01/09 11:30:09;;;;;;;16.58;13.80;;;7.80;99.90;;;;;;6183168;23;20032;-83
2024/01/09 11:32:35;;;;;;;15.18;13.52;;;7.80;99.90;;;;;;6157006;23;20033;-83
2024/01/09 11:35:11;;;;;;;16.48;13.45;;;7.80;1.00;;;;;;6183075;23;20001;-82
2024/01/09 11:37:39;;;;;;;26.02;17.73;;;7.90;99.90;;;;;;6156915;23;20421;-83
2024/01/09 11:40:08;;;;;;;21.40;15.02;;;7.90;1.00;;;;;;6156926;23;20001;-83
2024/01/09 11:42:36;;;;;;;16.73;14.52;;;8.00;99.90;;;;;;6156822;23;20012;-84
2024/01/09 11:45:09;;;;;;;19.98;13.95;;;8.00;99.90;;;;;;6182968;23;20001;-83
2024/01/09 11:47:39;;;;;;;21.05;14.70;;;8.00;99.90;;;;;;6156946;23;20015;-83
2024/01/09 11:50:09;;;;;;;18.42;14.43;;;8.10;99.90;;;;;;6156807;23;20445;-84
2024/01/09 11:52:36;;;;;;;20.98;13.93;;;8.00;99.90;;;;;;6156503;23;20063;-83
2024/01/09 11:55:07;;;;;;;16.55;13.50;;;8.10;99.90;;;;;;6183376;23;20047;-83
2024/01/09 11:57:34;;;;;;;16.95;13.20;;;8.20;99.90;;;;;;6183446;23;20161;-83
2024/01/09 12:00:04;;;;;;;19.45;14.25;;;8.10;99.90;;;;;;6156548;23;20013;-83
2024/01/09 12:02:31;;;;;;;19.23;13.70;;;8.20;99.90;;;;;;6158802;23;20020;-83
2024/01/09 12:04:57;;;;;;;22.52;14.73;;;8.20;99.90;;;;;;6185207;23;20062;-83
2024/01/09 12:07:23;;;;;;;18.20;15.00;;;8.30;99.90;;;;;;6185222;23;20033;-83
2024/01/09 12:09:49;;;;;;;18.77;15.27;;;8.20;99.90;;;;;;6158772;23;20009;-83
2024/01/09 12:12:23;;;;;;;18.90;15.13;;;8.20;99.90;;;;;;6158645;23;20008;-83
2024/01/09 12:14:53;;;;;;;20.55;14.65;;;8.20;99.90;;;;;;6158476;23;20315;-83
2024/01/09 12:17:33;;;;;;;16.70;13.65;;;8.20;99.90;;;;;;6185224;23;19997;-83
2024/01/09 12:19:59;;;;;;;17.35;14.68;;;8.30;99.90;;;;;;6185104;23;19997;-82
2024/01/09 12:22:25;;;;;;;15.40;13.80;;;8.30;99.90;;;;;;6158932;23;20453;-83
2024/01/09 12:24:52;;;;;;;15.05;13.45;;;8.30;99.90;;;;;;6158784;23;20015;-83
2024/01/09 12:27:20;;;;;;;16.65;13.20;;;8.40;99.90;;;;;;6185083;23;20624;-82
2024/01/09 12:29:46;;;;;;;16.35;13.32;;;8.40;99.90;;;;;;6158703;23;20063;-82
2024/01/09 12:32:13;;;;;;;16.75;14.77;;;8.40;99.90;;;;;;6158766;23;20377;-82
2024/01/09 12:34:39;;;;;;;16.85;13.77;;;8.40;99.90;;;;;;6158733;23;20001;-82
2024/01/09 12:37:08;;;;;;;19.65;15.20;;;8.40;99.90;;;;;;6158562;23;20005;-82
2024/01/09 12:39:35;;;;;;;24.38;17.75;;;8.40;99.90;;;;;;6158633;23;20005;-82